Terminal Aerodrome Forecast
Issued by NWS

Home | Current Version | Previous Version | Text Only | Print | Product List | Glossary On
Versions: 1 2 3 4 5 6 7 8 9 10 11 12 13 14 15 16 17 18 19 20 21 22 23
000
FTUS43 KDLH 281516 AAB
TAFHIB
TAF AMD
KHIB 281516Z 2815/2912 14013G20KT P6SM BKN015 OVC120
     FM281700 16013G20KT P6SM VCSH SCT015 BKN035 BKN080
     FM282000 18015G24KT P6SM VCTS SCT030CB
      TEMPO 2821/2824 -TSRA SCT025 BKN040CB
     FM290000 21015G24KT P6SM FEW050
     FM290500 25010KT P6SM SKC=

USA.gov is the U.S. government's official web portal to all federal, state and local government web resources and services.